D95

Dupont-Lapeer Airport

Lapeer, Michigan, USA
METAR KD95 220315Z AUTO 33011G16KT 10SM SCT034 OVC049 15/08 A3014 RMK AO2 T01500084
Observed Flight Rules
Sep-22 @ 03:15 UTC (10 minutes ago) Visual Flight Rules
Wind Visibility Clouds
330° at 11 knots
 Gusting to 16 knots
10 miles
Temperatures Readings
Current 15°C / 59°F
Dewpoint 8°C / 46°F
Humidity 63%
Altimeter 30.14" Hg
Pressure 1021 hPa
Elevation 255
METAR KD95 220315Z AUTO 33011G16KT 10SM SCT034 OVC049 15/08 A3014 RMK AO2 T01500084
Observed Flight Rules
Sep-22 @ 03:15 UTC
(10 minutes ago)
VFR
Wind Visibility
330° at 11 knots
 Gusting to 16 knots
10 miles
Clouds
Temperature Dewpoint
15°C / 59°F 8°C / 46°F
Humidity Altimeter Pressure
63% 30.14" Hg 1021 hPa